Time;durP1;ratioP1;P1;durP2;ratioP2;P2;SDS_P1;SDS_P2;PMS_P1;PMS_P2;Temp;Humidity;BMP_temperature;BMP_pressure;BME280_temperature;BME280_humidity;BME280_pressure;Samples;Min_cycle;Max_cycle;Signal;HPM_P1;HPM_P2
2022/11/09 00:00:52;;;;;;;6.60;1.20;;;;;;;10.87;75.16;98307.47;4998042;28;20839;-48
2022/11/09 00:03:19;;;;;;;7.63;1.23;;;;;;;10.83;75.96;98307.59;5001164;28;20080;-47
2022/11/09 00:05:55;;;;;;;7.40;1.50;;;;;;;10.79;75.10;98314.63;4999237;28;20045;-52
2022/11/09 00:08:21;;;;;;;13.02;1.95;;;;;;;10.73;76.10;98312.22;4998263;28;20054;-49
2022/11/09 00:10:48;;;;;;;6.88;1.63;;;;;;;10.71;75.61;98312.28;4995813;28;20046;-53
2022/11/09 00:13:14;;;;;;;13.18;1.58;;;;;;;10.70;75.21;98320.94;4998826;28;20441;-49
2022/11/09 00:15:41;;;;;;;9.05;1.40;;;;;;;10.66;75.40;98314.19;4999435;28;20123;-49
2022/11/09 00:18:08;;;;;;;6.50;1.65;;;;;;;10.63;75.24;98315.13;4999704;28;20042;-50
2022/11/09 00:20:35;;;;;;;7.03;0.98;;;;;;;10.60;75.44;98330.75;4995878;28;20074;-48
2022/11/09 00:23:01;;;;;;;8.73;0.98;;;;;;;10.58;76.29;98326.50;4995766;28;20084;-48
2022/11/09 00:25:28;;;;;;;4.38;0.95;;;;;;;10.54;75.33;98320.59;4999788;28;20133;-49
2022/11/09 00:27:54;;;;;;;9.32;1.65;;;;;;;10.52;75.45;98324.94;4997634;28;20509;-51
2022/11/09 00:30:21;;;;;;;11.20;0.93;;;;;;;10.50;76.26;98322.41;4998669;28;20065;-50
2022/11/09 00:32:48;;;;;;;4.70;0.73;;;;;;;10.49;75.59;98333.66;4997613;28;20133;-47
2022/11/09 00:35:14;;;;;;;7.75;1.00;;;;;;;10.45;75.52;98326.88;4997094;28;20125;-49
2022/11/09 00:37:41;;;;;;;10.85;1.48;;;;;;;10.44;75.91;98340.69;4996579;28;20081;-51
2022/11/09 00:40:08;;;;;;;6.75;0.95;;;;;;;10.41;76.43;98336.44;4999109;28;20050;-51
2022/11/09 00:42:35;;;;;;;5.05;0.93;;;;;;;10.39;75.82;98334.78;4997435;28;20042;-49
2022/11/09 00:45:02;;;;;;;8.25;1.05;;;;;;;10.34;76.35;98329.75;4998693;28;20137;-49
2022/11/09 00:47:28;;;;;;;5.85;0.93;;;;;;;10.34;76.08;98339.25;4997998;28;20070;-51
2022/11/09 00:49:55;;;;;;;5.30;0.50;;;;;;;10.32;76.69;98341.91;4999422;28;20138;-49
2022/11/09 00:52:22;;;;;;;9.45;1.50;;;;;;;10.29;75.90;98342.84;4998550;28;20121;-48
2022/11/09 00:54:48;;;;;;;16.48;3.08;;;;;;;10.29;76.30;98341.97;4987554;28;20074;-50
2022/11/09 00:57:15;;;;;;;15.13;1.88;;;;;;;10.26;76.51;98337.75;4984696;28;20138;-51
2022/11/09 00:59:42;;;;;;;3.95;1.25;;;;;;;10.25;76.61;98335.19;4985684;28;20050;-50
2022/11/09 01:02:09;;;;;;;12.55;1.75;;;;;;;10.23;76.08;98343.00;4987046;28;20072;-49
2022/11/09 01:04:37;;;;;;;9.30;1.20;;;;;;;10.22;76.20;98349.06;4986591;28;20129;-49
2022/11/09 01:07:06;;;;;;;4.70;0.88;;;;;;;10.22;76.42;98355.97;4987074;28;20162;-47
2022/11/09 01:09:33;;;;;;;5.45;1.23;;;;;;;10.17;76.15;98358.72;4987995;28;20054;-49
2022/11/09 01:12:00;;;;;;;2.08;0.30;;;;;;;10.17;76.63;98363.91;4986619;28;20125;-52
2022/11/09 01:14:27;;;;;;;5.78;1.15;;;;;;;10.17;76.12;98363.91;4986072;28;20046;-49
2022/11/09 01:16:53;;;;;;;10.70;0.82;;;;;;;10.17;76.06;98361.31;4984921;28;20076;-52
2022/11/09 01:19:21;;;;;;;8.82;1.13;;;;;;;10.16;76.01;98373.38;4985752;28;20465;-50
2022/11/09 01:21:49;;;;;;;6.40;0.77;;;;;;;10.13;76.86;98357.09;4986045;28;20043;-50
2022/11/09 01:24:17;;;;;;;7.30;0.68;;;;;;;10.13;76.59;98364.84;4987420;28;20165;-51
2022/11/09 01:26:45;;;;;;;7.70;0.70;;;;;;;10.10;76.74;98360.59;4985740;28;20050;-47
2022/11/09 01:29:14;;;;;;;8.10;1.30;;;;;;;10.07;76.58;98362.44;4985360;28;20062;-49
2022/11/09 01:31:42;;;;;;;9.82;1.55;;;;;;;10.09;76.74;98371.00;4986941;28;20050;-50
2022/11/09 01:34:10;;;;;;;13.43;1.58;;;;;;;10.09;76.62;98363.22;4986052;28;20137;-47
2022/11/09 01:36:38;;;;;;;11.30;1.30;;;;;;;10.08;76.48;98369.31;4981339;28;20058;-48
2022/11/09 01:39:06;;;;;;;5.63;1.33;;;;;;;10.05;76.99;98364.22;4987569;28;20057;-50
2022/11/09 01:41:34;;;;;;;5.00;0.88;;;;;;;10.03;76.71;98369.44;4985223;28;20078;-47
2022/11/09 01:44:08;;;;;;;12.98;1.27;;;;;;;9.99;76.61;98368.69;4983840;28;20046;-48
2022/11/09 01:46:46;;;;;;;4.78;1.67;;;;;;;9.98;77.25;98373.88;4981161;28;20061;-49
2022/11/09 01:49:21;;;;;;;7.65;1.10;;;;;;;9.97;77.17;98377.38;4981279;28;20098;-48
2022/11/09 01:51:56;;;;;;;11.55;1.17;;;;;;;9.97;77.06;98372.19;4981263;28;20105;-51
2022/11/09 01:54:27;;;;;;;6.50;1.15;;;;;;;9.96;77.11;98376.50;4984488;28;20160;-48
2022/11/09 01:56:59;;;;;;;8.27;1.30;;;;;;;9.96;76.37;98375.69;4982668;28;20149;-47
2022/11/09 01:59:32;;;;;;;5.68;0.68;;;;;;;9.94;76.68;98378.31;4980574;28;20136;-48
2022/11/09 02:01:59;;;;;;;6.85;1.35;;;;;;;9.93;76.85;98386.94;4981875;28;20128;-49
2022/11/09 02:04:33;;;;;;;9.07;1.00;;;;;;;9.90;76.76;98389.63;4979449;28;20712;-48
2022/11/09 02:07:00;;;;;;;9.25;1.40;;;;;;;9.91;77.40;98388.72;4982109;28;20080;-48
2022/11/09 02:09:40;;;;;;;7.25;0.75;;;;;;;9.89;77.19;98393.94;4984747;28;20759;-47
2022/11/09 02:12:07;;;;;;;8.93;1.67;;;;;;;9.89;77.17;98395.66;4984312;28;20065;-49
2022/11/09 02:14:36;;;;;;;8.38;0.82;;;;;;;9.89;77.17;98390.50;4981790;28;20054;-48
2022/11/09 02:17:04;;;;;;;6.38;1.05;;;;;;;9.90;77.52;98397.38;4979929;28;20049;-48
2022/11/09 02:19:30;;;;;;;5.90;1.92;;;;;;;9.89;76.82;98406.00;4982986;28;20085;-51
2022/11/09 02:21:57;;;;;;;9.90;1.13;;;;;;;9.89;77.16;98403.44;4976942;28;21362;-51
2022/11/09 02:24:24;;;;;;;12.15;1.55;;;;;;;9.87;77.15;98413.81;4986313;28;20488;-49
2022/11/09 02:26:51;;;;;;;5.57;0.90;;;;;;;9.86;76.86;98406.13;4983296;28;20137;-50
2022/11/09 02:29:30;;;;;;;11.07;1.02;;;;;;;9.86;77.49;98406.94;4981166;28;20050;-48
2022/11/09 02:32:02;;;;;;;6.18;1.02;;;;;;;9.83;77.26;98411.38;4980990;28;20190;-50
2022/11/09 02:34:29;;;;;;;5.35;0.77;;;;;;;9.85;77.63;98409.56;4978997;28;20097;-48
2022/11/09 02:36:55;;;;;;;6.10;1.27;;;;;;;9.86;77.06;98414.69;4983883;28;20053;-50
2022/11/09 02:39:25;;;;;;;13.60;1.13;;;;;;;9.85;77.32;98414.75;4978226;28;20066;-48
2022/11/09 02:41:58;;;;;;;6.97;1.10;;;;;;;9.82;77.66;98418.25;4983729;28;20701;-49
2022/11/09 02:44:33;;;;;;;5.63;1.13;;;;;;;9.81;77.22;98418.28;4980651;28;20053;-49
2022/11/09 02:47:00;;;;;;;9.68;0.93;;;;;;;9.79;77.67;98410.56;4981772;28;20471;-48
2022/11/09 02:49:27;;;;;;;3.97;0.75;;;;;;;9.81;78.05;98413.97;4980656;28;20145;-48
2022/11/09 02:51:53;;;;;;;5.82;1.42;;;;;;;9.81;77.13;98420.88;4986671;28;20092;-48
2022/11/09 02:54:20;;;;;;;9.27;1.08;;;;;;;9.80;77.49;98419.19;4980417;28;20392;-48
2022/11/09 02:56:46;;;;;;;8.07;1.27;;;;;;;9.83;77.10;98413.94;4983768;28;20138;-49
2022/11/09 02:59:13;;;;;;;6.82;1.10;;;;;;;9.83;77.16;98411.38;4985800;28;20054;-50
2022/11/09 03:01:39;;;;;;;11.18;1.33;;;;;;;9.84;77.95;98413.06;4984805;28;20050;-47
2022/11/09 03:04:06;;;;;;;4.53;0.93;;;;;;;9.83;77.45;98411.38;4981132;28;20053;-48
2022/11/09 03:06:33;;;;;;;6.05;0.57;;;;;;;9.83;77.59;98406.19;4982711;28;20097;-46
2022/11/09 03:09:02;;;;;;;10.93;2.15;;;;;;;9.83;77.72;98416.53;4985555;28;20042;-48
2022/11/09 03:11:28;;;;;;;4.75;0.77;;;;;;;9.81;77.74;98418.28;4982516;28;20132;-50
2022/11/09 03:13:56;;;;;;;6.97;1.23;;;;;;;9.81;77.28;98419.16;4987536;28;20062;-50
2022/11/09 03:16:22;;;;;;;8.88;1.92;;;;;;;9.76;78.16;98419.25;4984343;28;20521;-47
2022/11/09 03:18:49;;;;;;;5.80;1.23;;;;;;;9.77;77.50;98412.38;4980884;28;20177;-50
2022/11/09 03:21:17;;;;;;;6.38;1.10;;;;;;;9.77;77.09;98420.97;4982809;28;20054;-50
2022/11/09 03:23:44;;;;;;;9.30;1.00;;;;;;;9.76;76.99;98416.69;4982726;28;20137;-48
2022/11/09 03:26:10;;;;;;;9.85;1.38;;;;;;;9.76;77.96;98418.41;4981853;28;20146;-51
2022/11/09 03:28:37;;;;;;;3.83;1.00;;;;;;;9.75;77.45;98419.31;4979915;28;20132;-53
2022/11/09 03:31:03;;;;;;;4.15;1.15;;;;;;;9.72;77.47;98412.47;4980840;28;20042;-48
2022/11/09 03:33:30;;;;;;;10.77;1.63;;;;;;;9.72;77.70;98424.53;4979840;28;20075;-49
2022/11/09 03:35:57;;;;;;;3.03;0.43;;;;;;;9.70;77.63;98424.63;4983213;28;20513;-48
2022/11/09 03:38:24;;;;;;;6.68;0.68;;;;;;;9.68;78.11;98417.75;4982517;28;20042;-50
2022/11/09 03:40:50;;;;;;;7.50;0.90;;;;;;;9.69;77.67;98415.13;4979332;28;20470;-50
2022/11/09 03:43:17;;;;;;;11.00;1.45;;;;;;;9.67;77.76;98422.09;4974459;28;20439;-49
2022/11/09 03:45:46;;;;;;;6.35;0.80;;;;;;;9.65;78.20;98429.03;4980671;28;20061;-47
2022/11/09 03:48:12;;;;;;;4.53;1.33;;;;;;;9.65;77.78;98429.03;4981246;28;20046;-47
2022/11/09 03:50:39;;;;;;;10.05;1.25;;;;;;;9.65;77.98;98431.63;4980469;28;20077;-47
2022/11/09 03:53:08;;;;;;;7.40;0.95;;;;;;;9.64;77.55;98437.69;4980988;28;20057;-48
2022/11/09 03:55:36;;;;;;;8.68;1.52;;;;;;;9.62;77.97;98434.28;4979117;28;20157;-47
2022/11/09 03:58:04;;;;;;;6.45;0.60;;;;;;;9.61;78.09;98427.41;4981221;28;20074;-49
2022/11/09 04:00:30;;;;;;;9.30;1.48;;;;;;;9.59;77.47;98431.78;4982281;28;20062;-49
2022/11/09 04:02:57;;;;;;;9.50;1.80;;;;;;;9.58;77.62;98428.34;4981345;28;20228;-49
2022/11/09 04:05:24;;;;;;;11.45;0.88;;;;;;;9.58;77.68;98435.22;4981137;28;20137;-47
2022/11/09 04:07:53;;;;;;;6.60;0.80;;;;;;;9.57;77.62;98438.72;4982882;28;20439;-47
2022/11/09 04:10:21;;;;;;;4.30;1.02;;;;;;;9.57;77.79;98433.53;4983072;28;20065;-49
2022/11/09 04:12:48;;;;;;;7.57;1.65;;;;;;;9.56;77.99;98449.94;4980380;28;20043;-47
2022/11/09 04:15:16;;;;;;;6.65;0.65;;;;;;;9.57;77.77;98451.63;4982854;28;20076;-48
2022/11/09 04:17:43;;;;;;;6.07;0.70;;;;;;;9.55;78.17;98448.25;4980702;28;20082;-48
2022/11/09 04:20:10;;;;;;;11.95;1.77;;;;;;;9.56;77.92;98455.13;4976010;28;20051;-50
2022/11/09 04:22:37;;;;;;;9.57;0.98;;;;;;;9.55;78.42;98454.25;4980716;28;20466;-47
2022/11/09 04:25:04;;;;;;;5.18;0.68;;;;;;;9.54;78.44;98457.72;4984464;28;20133;-49
2022/11/09 04:27:31;;;;;;;4.35;1.05;;;;;;;9.52;78.14;98450.00;4980970;28;20078;-50
2022/11/09 04:29:58;;;;;;;3.22;0.85;;;;;;;9.52;78.31;98447.44;4985962;28;20549;-49
2022/11/09 04:32:24;;;;;;;6.63;0.82;;;;;;;9.52;77.92;98455.19;4982468;28;20406;-51
2022/11/09 04:34:51;;;;;;;4.07;0.82;;;;;;;9.54;77.84;98462.03;4982028;28;20077;-48
2022/11/09 04:37:17;;;;;;;6.38;1.25;;;;;;;9.50;78.33;98459.53;4987165;28;20463;-47
2022/11/09 04:39:44;;;;;;;6.93;0.95;;;;;;;9.51;77.98;98469.00;4985042;28;20058;-49
2022/11/09 04:42:11;;;;;;;7.32;0.75;;;;;;;9.50;77.82;98474.19;4984192;28;20129;-50
2022/11/09 04:44:37;;;;;;;6.22;0.98;;;;;;;9.50;77.78;98474.19;4981280;28;20121;-50
2022/11/09 04:47:04;;;;;;;16.38;1.70;;;;;;;9.49;78.14;98478.50;4984030;28;20058;-52
2022/11/09 04:49:30;;;;;;;9.18;0.60;;;;;;;9.46;77.88;98481.16;4986659;28;20533;-49
2022/11/09 04:51:57;;;;;;;10.13;0.88;;;;;;;9.45;78.08;98494.97;4987568;28;20133;-48
2022/11/09 04:54:24;;;;;;;7.47;0.68;;;;;;;9.44;78.44;98490.72;4986496;28;20627;-51
2022/11/09 04:56:50;;;;;;;9.63;1.08;;;;;;;9.44;78.21;98493.28;4985613;28;20078;-50
2022/11/09 04:59:17;;;;;;;7.97;0.52;;;;;;;9.43;77.98;98485.56;4988762;28;20129;-48
2022/11/09 05:01:43;;;;;;;5.53;0.88;;;;;;;9.43;78.16;98495.91;4982550;28;20164;-49
2022/11/09 05:04:10;;;;;;;9.20;1.10;;;;;;;9.43;78.39;98496.75;4984546;28;20046;-48
2022/11/09 05:06:36;;;;;;;7.53;0.73;;;;;;;9.46;77.79;98508.75;4988391;28;20054;-48
2022/11/09 05:09:05;;;;;;;8.15;1.23;;;;;;;9.48;78.49;98500.09;4987572;28;20038;-48
2022/11/09 05:11:33;;;;;;;5.45;1.48;;;;;;;9.51;78.05;98505.19;5018146;28;20042;-49
2022/11/09 05:14:00;;;;;;;6.68;0.95;;;;;;;9.56;78.38;98509.41;4988215;28;20077;-50
2022/11/09 05:16:28;;;;;;;8.65;0.65;;;;;;;9.58;78.17;98510.19;4986437;28;20453;-48
2022/11/09 05:18:54;;;;;;;8.77;0.85;;;;;;;9.59;78.16;98506.75;4984818;28;20117;-48
2022/11/09 05:21:21;;;;;;;4.07;0.95;;;;;;;9.59;77.93;98507.56;4985966;28;20846;-49
2022/11/09 05:24:04;;;;;;;6.00;0.82;;;;;;;9.57;77.77;98511.94;4980622;28;20873;-48
2022/11/09 05:26:32;;;;;;;7.32;1.38;;;;;;;9.57;78.25;98516.25;4984449;28;20079;-48
2022/11/09 05:29:02;;;;;;;4.88;0.60;;;;;;;9.55;78.19;98515.47;4986194;28;20081;-49
2022/11/09 05:31:29;;;;;;;14.65;1.10;;;;;;;9.52;78.06;98506.88;4982014;28;20050;-50
2022/11/09 05:33:56;;;;;;;14.88;1.17;;;;;;;9.52;78.74;98509.47;4980477;28;20050;-50
2022/11/09 05:36:22;;;;;;;9.15;1.42;;;;;;;9.54;78.42;98505.97;4982782;28;20530;-47
2022/11/09 05:38:49;;;;;;;6.95;0.77;;;;;;;9.54;78.11;98513.75;4988783;28;20837;-49
2022/11/09 05:41:16;;;;;;;10.38;0.80;;;;;;;9.56;78.16;98506.81;4982881;28;20129;-47
2022/11/09 05:43:44;;;;;;;5.25;0.73;;;;;;;9.58;78.19;98510.19;4982349;28;20082;-48
2022/11/09 05:46:12;;;;;;;11.25;1.30;;;;;;;9.59;79.10;98509.34;4976928;28;20065;-47
2022/11/09 05:48:39;;;;;;;7.38;0.50;;;;;;;9.61;78.42;98504.97;4983429;28;20046;-48
2022/11/09 05:51:08;;;;;;;6.82;0.93;;;;;;;9.63;78.25;98509.19;4985887;28;20072;-50
2022/11/09 05:53:36;;;;;;;11.02;1.15;;;;;;;9.65;78.33;98516.91;4984303;28;20068;-48
2022/11/09 05:56:11;;;;;;;5.07;0.50;;;;;;;9.66;78.38;98516.03;4984917;28;20454;-49
2022/11/09 05:58:38;;;;;;;10.35;1.13;;;;;;;9.65;78.11;98516.91;4985155;28;20445;-47
2022/11/09 06:01:06;;;;;;;9.50;0.95;;;;;;;9.64;78.40;98523.00;4980942;28;20086;-50
2022/11/09 06:03:33;;;;;;;9.73;1.38;;;;;;;9.61;77.74;98525.63;4979962;28;20601;-46
2022/11/09 06:06:02;;;;;;;11.60;1.13;;;;;;;9.59;78.56;98537.75;4983557;28;20625;-49
2022/11/09 06:08:34;;;;;;;15.38;2.28;;;;;;;9.56;78.63;98537.84;4986103;28;20493;-48
2022/11/09 06:11:04;;;;;;;14.02;2.28;;;;;;;9.55;77.75;98536.97;4982487;28;20046;-48
2022/11/09 06:13:31;;;;;;;12.32;1.40;;;;;;;9.52;78.21;98543.06;4981791;28;20402;-49
2022/11/09 06:16:00;;;;;;;8.07;1.45;;;;;;;9.50;78.29;98554.31;4959896;28;20097;-47
2022/11/09 06:18:29;;;;;;;3.47;0.93;;;;;;;9.47;77.77;98550.06;4976276;28;20105;-48
2022/11/09 06:20:58;;;;;;;3.03;0.63;;;;;;;9.45;78.29;98554.41;4983073;28;20050;-48
2022/11/09 06:23:25;;;;;;;8.77;0.70;;;;;;;9.45;78.80;98564.75;4983602;28;20077;-49
2022/11/09 06:25:52;;;;;;;6.63;0.95;;;;;;;9.45;77.94;98567.34;4983653;28;20489;-52
2022/11/09 06:28:19;;;;;;;5.53;0.82;;;;;;;9.47;78.36;98570.75;4985196;28;20070;-49
2022/11/09 06:30:46;;;;;;;5.53;1.13;;;;;;;9.49;78.67;98573.31;4985705;28;20085;-50
2022/11/09 06:33:12;;;;;;;3.72;0.50;;;;;;;9.54;78.51;98570.59;4980042;28;20046;-48
2022/11/09 06:35:39;;;;;;;8.35;0.93;;;;;;;9.57;78.73;98575.72;4985516;28;20145;-47
2022/11/09 06:38:08;;;;;;;6.32;0.52;;;;;;;9.59;78.25;98584.28;4985787;28;20133;-47
2022/11/09 06:40:35;;;;;;;3.90;0.65;;;;;;;9.60;78.71;98580.81;4983343;28;20054;-47
2022/11/09 06:43:02;;;;;;;6.07;0.93;;;;;;;9.62;78.24;98579.03;4986369;28;20103;-47
2022/11/09 06:45:30;;;;;;;2.75;0.82;;;;;;;9.64;78.76;98587.63;4982367;28;20060;-50
2022/11/09 06:47:59;;;;;;;5.65;1.13;;;;;;;9.65;78.55;98604.81;4980783;28;20069;-50
2022/11/09 06:50:28;;;;;;;4.53;0.63;;;;;;;9.67;78.87;98597.91;4981022;28;20278;-48
2022/11/09 06:52:56;;;;;;;3.15;0.57;;;;;;;9.68;79.07;98596.13;4983512;28;20102;-50
2022/11/09 06:55:24;;;;;;;6.15;0.98;;;;;;;9.67;78.26;98608.22;4983979;28;20073;-48
2022/11/09 06:57:51;;;;;;;3.55;0.98;;;;;;;9.69;78.49;98611.63;4985089;28;20096;-48
2022/11/09 07:00:18;;;;;;;6.00;1.52;;;;;;;9.69;78.41;98614.22;4982988;28;20169;-51
2022/11/09 07:02:44;;;;;;;4.97;0.47;;;;;;;9.68;78.96;98612.50;4981250;28;20070;-47
2022/11/09 07:05:11;;;;;;;4.80;0.88;;;;;;;9.67;78.78;98616.00;4981922;28;20069;-49
2022/11/09 07:07:38;;;;;;;8.52;1.20;;;;;;;9.69;78.84;98621.97;4983184;28;20130;-48
2022/11/09 07:10:05;;;;;;;7.55;1.10;;;;;;;9.68;78.68;98625.44;4979026;28;20141;-50
2022/11/09 07:12:33;;;;;;;3.42;0.47;;;;;;;9.68;78.52;98630.59;4984860;28;20046;-49
2022/11/09 07:15:00;;;;;;;4.85;0.55;;;;;;;9.70;79.03;98633.16;4985899;28;20185;-49
2022/11/09 07:17:30;;;;;;;2.90;0.52;;;;;;;9.70;78.81;98634.03;4979491;28;20130;-51
2022/11/09 07:19:57;;;;;;;1.20;0.57;;;;;;;9.71;79.03;98643.47;4980035;28;20089;-48
2022/11/09 07:22:24;;;;;;;4.13;0.73;;;;;;;9.67;78.80;98644.44;4985021;28;20115;-48
2022/11/09 07:24:50;;;;;;;6.40;0.63;;;;;;;9.71;78.66;98656.41;4986025;28;20074;-49
2022/11/09 07:27:17;;;;;;;5.03;0.32;;;;;;;9.72;78.54;98655.50;4979124;28;20074;-47
2022/11/09 07:29:46;;;;;;;2.35;0.50;;;;;;;9.71;78.76;98656.41;4984905;28;20050;-48
2022/11/09 07:32:13;;;;;;;3.17;0.63;;;;;;;9.70;78.47;98659.88;4984777;28;20596;-51
2022/11/09 07:34:40;;;;;;;2.38;0.80;;;;;;;9.69;78.57;98660.75;4983151;28;20074;-48
2022/11/09 07:37:06;;;;;;;2.90;0.65;;;;;;;9.67;78.20;98678.03;4985334;28;20054;-52
2022/11/09 07:39:33;;;;;;;4.00;0.43;;;;;;;9.65;78.33;98674.63;4983825;28;20050;-49
2022/11/09 07:41:59;;;;;;;1.58;0.43;;;;;;;9.62;78.61;98672.09;4980436;28;20196;-47
2022/11/09 07:44:26;;;;;;;3.63;0.52;;;;;;;9.65;78.39;98677.19;4972314;28;20054;-49
2022/11/09 07:46:53;;;;;;;6.82;0.95;;;;;;;9.66;78.10;98678.06;4982002;28;20058;-48
2022/11/09 07:49:19;;;;;;;1.65;0.52;;;;;;;9.64;78.37;98681.53;4981102;28;20054;-51
2022/11/09 07:51:46;;;;;;;0.45;0.25;;;;;;;9.66;78.49;98696.16;4979992;28;20129;-50
2022/11/09 07:54:12;;;;;;;1.30;0.45;;;;;;;9.67;78.60;98696.13;4979290;28;20085;-50
2022/11/09 07:56:39;;;;;;;0.50;0.22;;;;;;;9.68;78.07;98712.47;4979059;28;21506;-47
2022/11/09 07:59:06;;;;;;;0.90;0.57;;;;;;;9.69;78.14;98712.44;4980159;28;20129;-48
2022/11/09 08:01:32;;;;;;;1.42;0.52;;;;;;;9.72;78.35;98704.63;4978734;28;20050;-49
2022/11/09 08:04:00;;;;;;;2.53;0.73;;;;;;;9.79;78.54;98714.88;4982124;28;20042;-49
2022/11/09 08:06:26;;;;;;;3.28;0.68;;;;;;;9.89;78.70;98717.22;4983244;28;20081;-48
2022/11/09 08:08:54;;;;;;;2.40;0.50;;;;;;;10.24;77.83;98721.66;4980120;28;20805;-50
2022/11/09 08:11:21;;;;;;;1.23;0.90;;;;;;;10.93;78.17;98726.94;4996480;28;20051;-51
2022/11/09 08:13:48;;;;;;;3.45;0.55;;;;;;;11.41;76.15;98739.50;4998350;28;20120;-48
2022/11/09 08:16:17;;;;;;;1.50;0.57;;;;;;;11.73;76.64;98744.69;4982243;28;20091;-48
2022/11/09 08:18:44;;;;;;;4.10;0.73;;;;;;;12.10;76.00;98745.41;4981871;28;20498;-50
2022/11/09 08:21:11;;;;;;;1.83;0.45;;;;;;;12.39;74.22;98754.06;4984072;28;20105;-51
2022/11/09 08:23:38;;;;;;;3.75;0.40;;;;;;;12.68;75.14;98754.88;4981791;28;20045;-48
2022/11/09 08:26:05;;;;;;;4.20;0.85;;;;;;;12.93;75.23;98769.66;4981734;28;20133;-49
2022/11/09 08:28:33;;;;;;;2.60;0.30;;;;;;;13.24;74.05;98773.81;4981835;28;20156;-49
2022/11/09 08:31:03;;;;;;;1.13;0.40;;;;;;;13.62;72.21;98776.84;4980736;28;20089;-51
2022/11/09 08:33:33;;;;;;;1.17;0.35;;;;;;;14.11;71.42;98772.50;4995894;28;20078;-49
2022/11/09 08:36:00;;;;;;;2.20;0.77;;;;;;;14.83;70.45;98769.78;4980385;28;20551;-52
2022/11/09 08:38:27;;;;;;;1.85;0.68;;;;;;;15.44;69.08;98780.28;4983020;28;20082;-49
2022/11/09 08:40:57;;;;;;;2.17;0.35;;;;;;;15.97;68.30;98793.69;4986582;28;20509;-50
2022/11/09 08:43:25;;;;;;;5.63;0.40;;;;;;;16.45;67.17;98794.91;4989419;28;20042;-52
2022/11/09 08:45:52;;;;;;;1.73;0.82;;;;;;;16.81;66.85;98810.69;4982425;28;20447;-49
2022/11/09 08:48:18;;;;;;;3.58;0.20;;;;;;;16.92;65.24;98813.63;4984020;28;20066;-50
2022/11/09 08:50:51;;;;;;;2.50;0.52;;;;;;;16.91;65.21;98821.53;4987170;28;20054;-50
2022/11/09 08:53:18;;;;;;;3.80;0.68;;;;;;;17.45;64.86;98826.75;5003022;28;20501;-48
2022/11/09 08:55:45;;;;;;;3.70;0.68;;;;;;;18.14;63.80;98820.63;4988769;28;20078;-50
2022/11/09 08:58:15;;;;;;;1.95;0.95;;;;;;;18.88;63.63;98822.72;4989810;28;20056;-48
2022/11/09 09:00:42;;;;;;;3.63;0.57;;;;;;;19.63;62.22;98823.69;4989278;28;20101;-50
2022/11/09 09:03:09;;;;;;;2.47;1.25;;;;;;;20.27;59.87;98833.81;4986008;28;20081;-51
2022/11/09 09:05:36;;;;;;;2.58;0.47;;;;;;;20.91;58.87;98836.88;4987268;28;20086;-50
2022/11/09 09:08:04;;;;;;;1.80;0.30;;;;;;;21.50;58.70;98843.53;4987598;28;20061;-49
2022/11/09 09:10:34;;;;;;;2.45;0.60;;;;;;;22.09;57.67;98844.78;4983966;28;20085;-49
2022/11/09 09:13:03;;;;;;;2.28;0.57;;;;;;;22.63;55.73;98851.66;4980235;28;20086;-51
2022/11/09 09:15:29;;;;;;;1.27;0.77;;;;;;;23.10;54.25;98849.97;4985749;28;20081;-50
2022/11/09 09:17:59;;;;;;;1.60;0.43;;;;;;;23.51;52.72;98857.56;4987310;28;20050;-53
2022/11/09 09:20:26;;;;;;;2.10;0.70;;;;;;;23.86;52.03;98856.66;4986991;28;20088;-51
2022/11/09 09:22:53;;;;;;;2.13;0.68;;;;;;;24.13;51.13;98863.44;4985673;28;20664;-52
2022/11/09 09:25:19;;;;;;;3.83;0.55;;;;;;;24.47;50.89;98869.63;4987356;28;20520;-50
2022/11/09 09:27:46;;;;;;;2.75;0.80;;;;;;;24.81;50.29;98877.50;4986542;28;20054;-49
2022/11/09 09:30:13;;;;;;;4.03;0.85;;;;;;;25.18;49.46;98878.97;4986200;28;20137;-52
2022/11/09 09:32:39;;;;;;;2.35;0.60;;;;;;;25.48;49.17;98876.53;4985073;28;20112;-50
2022/11/09 09:35:06;;;;;;;2.05;0.57;;;;;;;25.82;48.36;98886.94;4984165;28;20046;-49
2022/11/09 09:37:33;;;;;;;2.20;0.75;;;;;;;26.16;47.91;98886.69;4984137;28;20088;-50
2022/11/09 09:40:00;;;;;;;2.90;0.93;;;;;;;26.46;46.90;98885.97;4987397;28;20050;-51
2022/11/09 09:42:32;;;;;;;2.55;1.23;;;;;;;26.73;46.22;98895.13;4985354;28;20089;-52
2022/11/09 09:48:02;;;;;;;2.50;2.28;;;;;;;27.25;44.58;98894.09;5040595;27;20394;-52
2022/11/09 09:50:37;;;;;;;3.13;2.55;;;;;;;27.36;43.81;98901.91;5003867;28;20061;-52
2022/11/09 09:53:17;;;;;;;1.17;0.80;;;;;;;27.53;44.08;98907.47;5019088;28;20640;-52
2022/11/09 09:55:59;;;;;;;2.72;1.73;;;;;;;27.66;43.18;98912.53;5019488;28;20914;-51
2022/11/09 09:58:28;;;;;;;1.77;1.67;;;;;;;27.42;42.57;98922.59;5019309;28;20136;-52
2022/11/09 10:01:15;;;;;;;2.55;2.35;;;;;;;27.38;42.48;98930.97;5022189;28;20049;-53
2022/11/09 10:03:42;;;;;;;2.10;1.90;;;;;;;26.91;41.32;98928.00;5016900;28;20058;-51
2022/11/09 10:06:36;;;;;;;2.33;2.10;;;;;;;26.87;42.70;98926.59;5021118;28;20066;-50
2022/11/09 10:25:25;;;;;;;1.50;1.05;;;;;;;21.51;46.14;98955.00;5121424;27;20391;-51
2022/11/09 10:28:15;;;;;;;3.00;1.95;;;;;;;20.97;47.36;98970.69;5121797;27;20138;-54
2022/11/09 10:30:42;;;;;;;4.07;1.58;;;;;;;20.46;48.23;98964.16;5116220;27;20050;-50
2022/11/09 10:36:24;;;;;;;2.85;0.40;;;;;;;19.47;49.71;98982.16;5035600;28;20393;-51
2022/11/09 10:38:55;;;;;;;2.22;0.80;;;;;;;19.18;50.74;98982.00;5011851;28;20073;-49
2022/11/09 10:43:59;;;;;;;1.25;0.47;;;;;;;18.56;52.18;98990.53;5046070;28;20410;-52
2022/11/09 10:46:26;;;;;;;3.53;0.70;;;;;;;18.28;52.73;98992.00;5017459;28;20733;-49
2022/11/09 10:48:54;;;;;;;0.90;0.30;;;;;;;18.02;52.71;99002.00;5018135;28;20587;-48
2022/11/09 10:51:32;;;;;;;4.22;0.90;;;;;;;17.73;53.63;99003.38;5018782;28;20042;-49
2022/11/09 10:57:02;;;;;;;2.35;2.00;;;;;;;17.18;53.92;99007.75;5014436;28;20396;-51
2022/11/09 11:07:41;;;;;;;3.17;1.48;;;;;;;16.39;56.64;99001.66;5057470;28;20931;-48
2022/11/09 11:10:10;;;;;;;2.55;0.80;;;;;;;16.30;56.81;99015.09;5000784;28;20129;-47
2022/11/09 11:12:36;;;;;;;2.28;1.10;;;;;;;16.21;56.82;99021.56;4999489;28;20089;-49
2022/11/09 11:15:22;;;;;;;4.15;0.70;;;;;;;16.09;57.00;99020.34;4997247;28;20133;-54
2022/11/09 11:17:49;;;;;;;3.92;0.45;;;;;;;16.06;57.48;99023.06;4998113;28;20101;-49
2022/11/09 11:20:34;;;;;;;3.42;2.30;;;;;;;15.97;57.77;99026.09;4997456;28;20610;-48
2022/11/09 11:28:39;;;;;;;3.17;1.63;;;;;;;15.76;58.54;99039.06;5045647;28;20409;-53
2022/11/09 11:31:12;;;;;;;5.22;2.05;;;;;;;15.74;58.65;99043.50;5027886;28;20107;-46
2022/11/09 11:33:39;;;;;;;4.88;2.13;;;;;;;15.67;59.17;99046.34;5027632;28;20628;-49
2022/11/09 11:36:25;;;;;;;4.47;1.73;;;;;;;15.61;58.87;99044.00;5026868;28;20154;-48
2022/11/09 11:39:19;;;;;;;4.18;1.67;;;;;;;15.49;59.65;99045.31;5027982;28;20045;-47
2022/11/09 11:47:43;;;;;;;3.05;0.73;;;;;;;15.49;60.00;99063.59;5076068;27;20406;-47
2022/11/09 11:50:37;;;;;;;4.88;0.60;;;;;;;15.36;59.99;99054.53;5019874;28;20080;-48
2022/11/09 11:53:38;;;;;;;1.63;0.63;;;;;;;15.29;60.54;99053.91;5024630;28;20076;-48
2022/11/09 11:59:25;;;;;;;2.92;0.60;;;;;;;15.20;60.43;99060.31;5076677;27;20385;-48
2022/11/09 12:02:32;;;;;;;4.32;1.20;;;;;;;15.19;60.86;99070.84;5049853;28;20077;-48
2022/11/09 12:08:25;;;;;;;2.72;1.77;;;;;;;15.13;60.81;99064.94;5045692;27;20384;-44
2022/11/09 12:11:13;;;;;;;3.53;1.83;;;;;;;15.10;61.56;99091.13;4998160;28;20054;-46
2022/11/09 12:16:40;;;;;;;3.08;0.73;;;;;;;15.04;61.67;99096.59;5053195;27;20732;-47
2022/11/09 12:19:36;;;;;;;3.42;0.70;;;;;;;15.01;61.50;99091.47;5032484;28;20137;-48
2022/11/09 12:33:55;;;;;;;3.88;2.05;;;;;;;14.90;61.73;99105.75;5016507;27;20404;-47
2022/11/09 12:36:32;;;;;;;4.82;1.80;;;;;;;14.92;61.57;99110.06;4988292;28;20050;-46
2022/11/09 12:41:36;;;;;;;5.05;1.50;;;;;;;15.14;61.42;99108.34;5082005;27;20407;-46
2022/11/09 12:44:12;;;;;;;3.53;1.33;;;;;;;14.87;61.78;99105.00;5064602;28;20057;-45
2022/11/09 12:46:48;;;;;;;3.50;0.85;;;;;;;14.77;61.87;99101.88;5057638;28;20056;-46
2022/11/09 12:49:30;;;;;;;2.63;0.85;;;;;;;14.63;62.16;99110.16;5059262;28;20041;-46
2022/11/09 12:51:57;;;;;;;3.15;1.02;;;;;;;14.61;61.88;99115.41;5062575;28;20447;-48
2022/11/09 12:54:26;;;;;;;1.92;1.33;;;;;;;14.57;62.25;99119.03;5060802;28;20444;-46
2022/11/09 12:57:05;;;;;;;2.83;0.82;;;;;;;14.50;62.48;99123.59;5065408;28;20063;-48